Time;durP1;ratioP1;P1;durP2;ratioP2;P2;SDS_P1;SDS_P2;PMS_P1;PMS_P2;Temp;Humidity;BMP_temperature;BMP_pressure;BME280_temperature;BME280_humidity;BME280_pressure;Samples;Min_cycle;Max_cycle;Signal;HPM_P1;HPM_P2
2022/10/04 00:01:47;;;;;;;899.70;820.13;;;8.40;99.90;;;;;;4992732;28;20458;-85
2022/10/04 00:04:18;;;;;;;902.00;822.30;;;8.50;99.90;;;;;;4992311;28;20478;-86
2022/10/04 00:06:49;;;;;;;901.20;821.70;;;8.60;99.90;;;;;;4992581;28;20465;-85
2022/10/04 00:09:22;;;;;;;894.47;815.37;;;8.60;99.90;;;;;;4992559;28;20486;-86
2022/10/04 00:11:50;;;;;;;897.30;816.20;;;8.70;99.90;;;;;;4992576;28;20466;-86
2022/10/04 00:14:20;;;;;;;896.50;816.43;;;8.80;99.90;;;;;;4992320;28;20478;-86
2022/10/04 00:16:49;;;;;;;897.37;817.47;;;8.80;99.90;;;;;;4992261;28;20835;-86
2022/10/04 00:19:26;;;;;;;893.23;812.27;;;8.80;99.90;;;;;;4992252;28;20446;-86
2022/10/04 00:22:16;;;;;;;900.23;819.13;;;8.80;99.90;;;;;;4992392;28;20453;-86
2022/10/04 00:25:21;;;;;;;901.73;821.93;;;8.80;99.90;;;;;;4992081;28;20478;-86
2022/10/04 00:28:26;;;;;;;902.67;821.27;;;8.80;99.90;;;;;;4986260;28;21084;-86
2022/10/04 00:31:17;;;;;;;897.23;815.73;;;8.70;99.90;;;;;;4992351;28;20458;-86
2022/10/04 00:33:47;;;;;;;901.80;819.70;;;8.80;99.90;;;;;;4995502;28;20478;-86
2022/10/04 00:36:47;;;;;;;906.80;823.70;;;8.80;99.90;;;;;;4995799;28;20465;-85
2022/10/04 00:39:24;;;;;;;900.43;817.90;;;8.80;99.90;;;;;;4996027;28;20477;-86
2022/10/04 00:42:00;;;;;;;900.37;818.50;;;8.80;99.90;;;;;;4995608;28;20490;-86
2022/10/04 00:44:33;;;;;;;906.33;824.57;;;8.90;99.90;;;;;;4995028;28;20600;-86
2022/10/04 00:47:03;;;;;;;900.43;819.93;;;8.80;99.90;;;;;;4995862;28;20465;-86
2022/10/04 00:49:36;;;;;;;902.83;823.07;;;8.80;99.90;;;;;;4995900;28;20823;-86
2022/10/04 00:52:12;;;;;;;905.27;825.47;;;8.80;99.90;;;;;;4995636;28;20485;-86
2022/10/04 00:54:43;;;;;;;904.03;825.00;;;8.80;99.90;;;;;;4995049;28;20474;-86
2022/10/04 00:57:14;;;;;;;909.47;828.80;;;8.80;99.90;;;;;;4995310;28;20456;-86
2022/10/04 00:59:44;;;;;;;901.50;822.57;;;8.90;99.90;;;;;;4995052;28;20524;-86
2022/10/04 01:02:23;;;;;;;897.37;818.33;;;8.80;99.90;;;;;;4995286;28;20458;-87
2022/10/04 01:04:54;;;;;;;898.47;819.33;;;8.90;99.90;;;;;;4994843;28;20511;-86
2022/10/04 01:07:27;;;;;;;897.97;818.67;;;8.90;99.90;;;;;;4995297;28;20449;-86
2022/10/04 01:09:58;;;;;;;894.80;816.87;;;8.90;99.90;;;;;;4995373;28;20924;-86
2022/10/04 01:12:38;;;;;;;893.73;815.97;;;8.90;99.90;;;;;;4981102;28;20836;-86
2022/10/04 01:15:11;;;;;;;893.53;815.23;;;8.90;99.90;;;;;;4975108;28;20475;-86
2022/10/04 01:17:38;;;;;;;887.90;809.63;;;8.90;99.90;;;;;;4975514;28;20948;-86
2022/10/04 01:20:28;;;;;;;889.03;809.57;;;8.90;99.90;;;;;;4975436;28;20462;-86
2022/10/04 01:22:56;;;;;;;892.10;814.10;;;9.00;99.90;;;;;;4975525;28;20967;-86
2022/10/04 01:25:48;;;;;;;896.77;818.47;;;9.00;99.90;;;;;;4975349;28;20474;-85
2022/10/04 01:28:15;;;;;;;891.57;814.20;;;9.00;99.90;;;;;;4975793;28;20846;-86
2022/10/04 01:30:42;;;;;;;894.80;817.57;;;9.00;99.90;;;;;;4975378;28;20458;-86
2022/10/04 01:33:09;;;;;;;894.17;817.97;;;8.90;99.90;;;;;;4975616;28;20487;-86
2022/10/04 01:35:36;;;;;;;895.67;819.90;;;8.90;99.90;;;;;;4975023;28;20461;-86
2022/10/04 01:38:06;;;;;;;890.60;815.40;;;8.90;99.90;;;;;;4977978;28;20451;-86
2022/10/04 01:40:34;;;;;;;880.37;804.57;;;9.00;99.90;;;;;;4974956;28;20457;-86
2022/10/04 01:43:03;;;;;;;880.00;804.23;;;8.90;99.90;;;;;;4974787;28;20974;-86
2022/10/04 01:45:35;;;;;;;876.17;800.27;;;9.10;99.90;;;;;;4974230;28;20487;-86
2022/10/04 01:48:06;;;;;;;878.10;803.07;;;9.10;99.90;;;;;;4974954;28;20486;-86
2022/10/04 01:50:37;;;;;;;878.07;803.60;;;9.00;99.90;;;;;;4974999;28;20462;-86
2022/10/04 01:53:14;;;;;;;877.83;803.33;;;9.00;99.90;;;;;;4975278;28;20466;-86
2022/10/04 01:55:47;;;;;;;874.00;800.60;;;9.00;99.90;;;;;;4974636;28;21007;-86
2022/10/04 01:58:17;;;;;;;874.63;802.20;;;9.00;99.90;;;;;;4974912;28;20525;-86
2022/10/04 02:00:49;;;;;;;881.80;809.37;;;8.80;99.90;;;;;;4974688;28;20459;-86
2022/10/04 02:03:20;;;;;;;876.20;803.90;;;8.80;99.90;;;;;;4974926;28;20458;-86
2022/10/04 02:06:28;;;;;;;879.40;807.57;;;8.80;99.90;;;;;;4975196;28;20459;-86
2022/10/04 02:08:58;;;;;;;877.83;806.27;;;8.70;99.90;;;;;;4940961;28;20482;-86
2022/10/04 02:11:29;;;;;;;883.67;811.80;;;8.60;99.90;;;;;;4977728;28;20517;-86
2022/10/04 02:13:56;;;;;;;884.27;812.97;;;8.60;99.90;;;;;;4974700;28;20550;-85
2022/10/04 02:16:25;;;;;;;882.33;810.77;;;8.50;99.90;;;;;;4974388;28;20558;-86
2022/10/04 02:18:52;;;;;;;880.57;808.30;;;8.50;99.90;;;;;;4974459;28;20455;-85
2022/10/04 02:21:20;;;;;;;883.83;811.93;;;8.50;99.90;;;;;;4974699;28;20844;-87
2022/10/04 02:23:47;;;;;;;886.10;814.90;;;8.40;99.90;;;;;;4974277;28;20482;-86
2022/10/04 02:26:15;;;;;;;886.73;814.77;;;8.40;99.90;;;;;;4974153;28;20839;-86
2022/10/04 02:28:42;;;;;;;881.50;808.50;;;8.40;99.90;;;;;;4974101;28;20486;-85
2022/10/04 02:33:58;;;;;;;880.73;806.87;;;8.40;99.90;;;;;;4974106;28;20458;-86
2022/10/04 02:36:27;;;;;;;881.20;805.50;;;8.50;99.90;;;;;;4974227;28;20517;-84
2022/10/04 02:38:59;;;;;;;876.83;801.40;;;8.50;99.90;;;;;;4974151;28;20837;-86
2022/10/04 02:41:32;;;;;;;869.37;794.17;;;8.50;99.90;;;;;;4974133;28;20498;-87
2022/10/04 02:44:03;;;;;;;882.10;805.50;;;8.50;99.90;;;;;;4973529;28;21039;-86
2022/10/04 02:46:34;;;;;;;877.73;798.57;;;8.50;99.90;;;;;;4973736;28;20462;-87
2022/10/04 02:49:05;;;;;;;881.00;800.90;;;8.60;99.90;;;;;;4974313;28;20518;-85
2022/10/04 02:51:38;;;;;;;882.93;803.40;;;8.60;99.90;;;;;;4974159;28;20513;-86
2022/10/04 02:54:14;;;;;;;887.77;808.57;;;8.70;99.90;;;;;;4973805;28;20478;-86
2022/10/04 02:56:43;;;;;;;887.60;808.80;;;8.60;99.90;;;;;;4975844;28;20458;-86
2022/10/04 02:59:16;;;;;;;888.43;810.07;;;8.70;99.90;;;;;;4973616;28;20455;-86
2022/10/04 03:01:50;;;;;;;888.93;811.17;;;8.60;99.90;;;;;;4978999;28;20487;-86
2022/10/04 03:04:19;;;;;;;898.03;820.53;;;8.50;99.90;;;;;;4973694;28;20483;-85
2022/10/04 03:06:47;;;;;;;905.83;828.07;;;8.60;99.90;;;;;;4973618;28;20952;-86
2022/10/04 03:09:15;;;;;;;909.10;831.93;;;8.50;99.90;;;;;;4973571;28;20479;-86
2022/10/04 03:11:43;;;;;;;912.63;835.43;;;8.40;99.90;;;;;;4973912;28;20466;-86
2022/10/04 03:14:14;;;;;;;916.40;838.43;;;8.40;99.90;;;;;;5101202;23;20488;-86
2022/10/04 03:16:44;;;;;;;915.33;836.77;;;8.30;99.90;;;;;;5012577;28;20453;-86
2022/10/04 03:19:13;;;;;;;903.93;826.33;;;8.40;99.90;;;;;;5012565;28;20507;-85
2022/10/04 03:21:42;;;;;;;891.97;815.40;;;8.40;99.90;;;;;;5012602;28;20452;-86
2022/10/04 03:24:16;;;;;;;898.13;820.47;;;8.30;99.90;;;;;;5012229;28;20476;-86
2022/10/04 03:26:47;;;;;;;912.17;834.60;;;8.40;99.90;;;;;;5015021;28;20539;-85
2022/10/04 03:29:16;;;;;;;901.43;822.90;;;8.30;99.90;;;;;;5012559;28;20488;-86
2022/10/04 03:31:46;;;;;;;903.17;826.30;;;8.30;99.90;;;;;;5012461;28;20968;-86
2022/10/04 03:34:17;;;;;;;899.33;822.10;;;8.20;99.90;;;;;;5012305;28;20512;-86
2022/10/04 03:36:48;;;;;;;899.80;823.20;;;8.20;99.90;;;;;;5014847;28;20461;-86
2022/10/04 03:39:25;;;;;;;909.30;830.73;;;8.10;99.90;;;;;;5012597;28;20528;-86
2022/10/04 03:41:54;;;;;;;906.33;826.93;;;8.20;99.90;;;;;;5012416;28;20457;-86
2022/10/04 03:44:21;;;;;;;905.23;825.07;;;8.10;99.90;;;;;;5011972;28;20477;-85
2022/10/04 03:46:48;;;;;;;903.20;823.70;;;8.10;99.90;;;;;;5012365;28;20480;-86
2022/10/04 03:49:21;;;;;;;900.90;821.50;;;8.00;99.90;;;;;;5012017;28;20473;-85
2022/10/04 03:51:51;;;;;;;906.50;828.23;;;8.00;99.90;;;;;;5012187;28;20464;-86
2022/10/04 03:54:23;;;;;;;908.97;830.87;;;8.00;99.90;;;;;;5011955;28;20511;-85
2022/10/04 03:56:58;;;;;;;902.07;823.27;;;7.90;99.90;;;;;;5014857;28;20485;-86
2022/10/04 03:59:28;;;;;;;894.77;815.70;;;7.90;99.90;;;;;;5012245;28;20448;-85
2022/10/04 04:02:09;;;;;;;880.60;802.50;;;7.80;99.90;;;;;;5012214;28;20456;-85
2022/10/04 04:04:43;;;;;;;878.40;799.00;;;7.80;99.90;;;;;;5011825;28;21003;-85
2022/10/04 04:07:14;;;;;;;886.20;806.70;;;7.80;99.90;;;;;;5013240;28;20457;-86
2022/10/04 04:09:44;;;;;;;885.67;803.67;;;7.60;99.90;;;;;;5015987;28;20473;-86
2022/10/04 04:12:18;;;;;;;883.37;802.57;;;7.60;99.90;;;;;;5016012;28;20527;-86
2022/10/04 04:14:49;;;;;;;891.30;809.23;;;7.60;99.90;;;;;;5015637;28;20491;-86
2022/10/04 04:17:35;;;;;;;893.97;810.20;;;7.60;99.90;;;;;;5016046;28;20511;-85
2022/10/04 04:20:07;;;;;;;897.47;814.10;;;7.70;99.90;;;;;;5015835;28;20455;-86
2022/10/04 04:22:35;;;;;;;876.80;794.70;;;7.60;99.90;;;;;;5026748;28;20471;-86
2022/10/04 04:31:01;;;;;;;906.07;821.90;;;7.70;99.90;;;;;;4998373;28;21342;-86
2022/10/04 04:33:33;;;;;;;901.40;816.47;;;7.80;99.90;;;;;;5017624;28;20469;-86
2022/10/04 04:36:10;;;;;;;903.27;817.83;;;7.80;99.90;;;;;;5027746;28;20543;-86
2022/10/04 05:44:22;;;;;;;930.87;843.07;;;7.70;99.90;;;;;;5198345;23;20491;-79
2022/10/04 05:46:49;;;;;;;918.77;831.40;;;7.70;99.90;;;;;;5018824;28;20488;-81
2022/10/04 05:49:19;;;;;;;908.17;822.17;;;7.70;99.90;;;;;;5018843;28;20484;-81
2022/10/04 05:51:50;;;;;;;887.17;802.37;;;7.60;99.90;;;;;;5018420;28;20448;-81
2022/10/04 05:54:21;;;;;;;898.93;812.93;;;7.60;99.90;;;;;;5018421;28;20486;-81
2022/10/04 05:57:23;;;;;;;905.97;819.07;;;7.60;99.90;;;;;;5018508;28;20453;-81
2022/10/04 06:00:08;;;;;;;908.80;821.73;;;7.70;99.90;;;;;;5020203;28;20460;-81
2022/10/04 06:02:54;;;;;;;908.83;822.23;;;7.70;99.90;;;;;;5019432;28;20553;-81
2022/10/04 06:05:25;;;;;;;907.83;820.73;;;7.70;99.90;;;;;;5018975;28;20481;-81
2022/10/04 06:08:01;;;;;;;902.90;816.17;;;7.70;99.90;;;;;;5019274;28;20461;-81
2022/10/04 06:11:18;;;;;;;910.17;823.50;;;7.70;99.90;;;;;;5018083;28;21004;-81
2022/10/04 06:14:09;;;;;;;906.90;819.83;;;7.80;99.90;;;;;;4955744;28;20551;-81
2022/10/04 06:17:04;;;;;;;907.77;821.37;;;7.80;99.90;;;;;;5012212;28;20835;-81
2022/10/04 06:20:02;;;;;;;902.47;815.37;;;7.90;99.90;;;;;;5017648;28;20460;-81
2022/10/04 06:22:31;;;;;;;894.63;809.07;;;8.00;99.90;;;;;;5017583;28;20499;-81
2022/10/04 06:25:08;;;;;;;899.47;812.70;;;8.20;99.90;;;;;;5016532;28;21008;-82
2022/10/04 06:27:40;;;;;;;910.63;823.33;;;8.20;99.90;;;;;;5017030;28;20453;-81
2022/10/04 06:30:14;;;;;;;901.83;815.47;;;8.30;99.90;;;;;;5016039;28;20513;-84
2022/10/04 06:33:18;;;;;;;911.50;823.87;;;8.40;99.90;;;;;;5016794;28;20456;-82
2022/10/04 06:36:18;;;;;;;900.90;815.27;;;8.50;99.90;;;;;;5018416;28;20468;-81
2022/10/04 06:39:08;;;;;;;887.23;802.13;;;8.60;99.90;;;;;;5016615;28;20515;-81
2022/10/04 06:42:24;;;;;;;898.77;813.33;;;8.70;99.90;;;;;;5018044;28;20836;-81
2022/10/04 06:45:12;;;;;;;887.63;802.63;;;8.80;99.90;;;;;;5015933;28;20476;-82
2022/10/04 06:47:59;;;;;;;893.50;807.70;;;8.80;99.90;;;;;;5017657;28;20480;-82
2022/10/04 06:50:34;;;;;;;886.73;801.73;;;8.90;99.90;;;;;;5017833;28;20484;-81
2022/10/04 06:53:16;;;;;;;892.60;807.83;;;9.00;99.90;;;;;;5016932;28;20453;-81
2022/10/04 06:56:06;;;;;;;898.80;814.10;;;9.10;99.90;;;;;;5017384;28;20477;-82
2022/10/04 06:59:04;;;;;;;891.93;808.10;;;9.30;99.90;;;;;;5015578;28;20901;-81
2022/10/04 07:01:32;;;;;;;893.23;809.90;;;9.40;99.90;;;;;;5018038;28;20464;-82
2022/10/04 07:04:10;;;;;;;885.10;802.93;;;9.50;99.90;;;;;;5015861;28;20473;-81
2022/10/04 07:06:46;;;;;;;886.80;805.23;;;9.70;99.90;;;;;;5017597;28;20453;-82
2022/10/04 07:09:20;;;;;;;880.27;799.47;;;9.80;99.90;;;;;;5018220;28;20484;-81
2022/10/04 07:11:50;;;;;;;866.00;787.50;;;10.00;99.90;;;;;;5017217;28;20464;-82
2022/10/04 07:14:21;;;;;;;853.80;779.00;;;10.00;99.90;;;;;;5017173;28;20476;-81
2022/10/04 07:16:53;;;;;;;860.20;786.50;;;10.10;99.90;;;;;;5017112;28;20461;-81
2022/10/04 07:19:35;;;;;;;846.77;775.70;;;10.30;99.90;;;;;;5014396;28;20453;-83
2022/10/04 07:22:14;;;;;;;841.10;774.07;;;10.20;99.90;;;;;;5017510;28;20463;-81
2022/10/04 07:25:01;;;;;;;824.60;761.80;;;10.40;99.90;;;;;;5017455;28;20477;-82
2022/10/04 07:27:32;;;;;;;818.73;760.10;;;10.40;99.90;;;;;;5017508;28;20479;-81
2022/10/04 07:30:00;;;;;;;804.10;749.47;;;10.40;99.90;;;;;;5017692;28;21013;-82
2022/10/04 07:32:30;;;;;;;786.87;735.40;;;10.40;99.90;;;;;;5018150;28;20457;-82
2022/10/04 07:35:02;;;;;;;764.23;716.03;;;10.40;99.90;;;;;;5017747;28;20503;-82
2022/10/04 07:37:34;;;;;;;747.87;701.17;;;10.40;99.90;;;;;;5018846;28;20852;-84
2022/10/04 07:40:05;;;;;;;726.47;683.07;;;10.50;99.90;;;;;;5017863;28;20453;-82
2022/10/04 07:42:38;;;;;;;695.03;654.60;;;10.50;99.90;;;;;;5018089;28;20459;-82
2022/10/04 07:45:14;;;;;;;663.53;626.80;;;10.50;99.90;;;;;;5021197;28;20999;-82
2022/10/04 07:47:42;;;;;;;649.83;616.53;;;10.40;99.90;;;;;;5021763;28;20463;-81
2022/10/04 07:50:23;;;;;;;628.63;597.80;;;10.50;99.90;;;;;;5021896;28;20488;-82
2022/10/04 07:52:57;;;;;;;618.53;588.53;;;10.50;99.90;;;;;;5021064;28;20460;-82
2022/10/04 07:55:28;;;;;;;582.10;556.07;;;10.50;99.90;;;;;;5021272;28;20473;-82
2022/10/04 07:58:13;;;;;;;570.00;544.67;;;10.50;99.90;;;;;;5021221;28;20524;-82
2022/10/04 08:00:48;;;;;;;563.63;537.83;;;10.50;99.90;;;;;;5021353;28;20452;-82
2022/10/04 08:03:35;;;;;;;557.80;533.50;;;10.60;99.90;;;;;;5021579;28;20457;-82
2022/10/04 08:06:12;;;;;;;537.93;514.43;;;10.60;99.90;;;;;;5021207;28;20484;-83
2022/10/04 08:09:05;;;;;;;530.80;508.10;;;10.60;99.90;;;;;;5021483;28;20444;-82
2022/10/04 08:11:42;;;;;;;591.07;564.17;;;10.70;99.90;;;;;;5021108;28;20453;-82
2022/10/04 08:14:24;;;;;;;616.87;588.00;;;10.90;99.90;;;;;;5020400;28;20531;-82
2022/10/04 08:17:01;;;;;;;561.17;536.70;;;11.10;99.90;;;;;;5019645;28;20476;-82
2022/10/04 08:19:45;;;;;;;529.43;507.13;;;11.10;99.90;;;;;;5020590;28;20459;-82
2022/10/04 08:22:28;;;;;;;489.77;469.27;;;11.20;99.90;;;;;;5020469;28;20452;-81
2022/10/04 08:25:05;;;;;;;455.00;437.23;;;11.20;99.90;;;;;;5020858;28;20473;-81
2022/10/04 08:29:41;;;;;;;407.40;391.40;;;11.40;99.90;;;;;;5021592;28;20463;-81
2022/10/04 08:30:50;;;;;;;295.03;283.63;;;11.40;99.90;;;;;;5020617;28;20481;-81
2022/10/04 08:33:28;;;;;;;261.10;251.40;;;11.60;99.90;;;;;;5021461;28;20493;-81
2022/10/04 08:36:07;;;;;;;198.37;190.07;;;11.70;99.90;;;;;;5023079;28;20548;-82
2022/10/04 08:38:43;;;;;;;82.47;77.97;;;12.00;99.90;;;;;;5021907;28;20460;-82
2022/10/04 08:41:49;;;;;;;40.13;37.33;;;12.40;99.90;;;;;;5025700;28;20449;-81
2022/10/04 08:44:46;;;;;;;21.60;13.63;;;12.70;99.90;;;;;;5025093;28;20472;-82
2022/10/04 08:47:49;;;;;;;20.00;10.43;;;13.20;99.90;;;;;;5025407;28;20449;-82
2022/10/04 08:51:01;;;;;;;19.20;11.50;;;13.50;99.90;;;;;;5024527;28;20447;-82
2022/10/04 08:54:00;;;;;;;21.35;12.38;;;13.90;99.90;;;;;;5023843;28;20564;-81
2022/10/04 08:56:45;;;;;;;20.98;11.98;;;14.30;99.90;;;;;;5024057;28;20459;-82
2022/10/04 08:59:27;;;;;;;14.53;9.93;;;14.60;99.90;;;;;;5024977;28;20212;-82
2022/10/04 09:02:33;;;;;;;20.30;10.60;;;14.80;99.90;;;;;;5025197;28;20519;-82
2022/10/04 09:05:20;;;;;;;17.40;8.23;;;15.10;99.90;;;;;;5023824;28;20225;-82
2022/10/04 09:08:10;;;;;;;14.70;8.43;;;15.40;99.90;;;;;;5023769;28;20466;-83
2022/10/04 09:10:47;;;;;;;17.10;8.40;;;15.40;99.60;;;;;;5022984;28;20478;-82
2022/10/04 09:13:38;;;;;;;15.53;8.30;;;15.80;98.20;;;;;;5023484;28;20445;-82
2022/10/04 09:16:19;;;;;;;15.10;8.20;;;16.20;98.10;;;;;;5023201;28;20849;-83
2022/10/04 09:18:59;;;;;;;13.40;8.43;;;16.30;95.30;;;;;;5020960;28;20533;-83
2022/10/04 09:21:42;;;;;;;16.13;8.70;;;16.80;93.80;;;;;;5019940;28;20460;-83
2022/10/04 09:24:50;;;;;;;18.70;9.80;;;17.20;93.30;;;;;;5019823;28;20533;-81
2022/10/04 09:27:33;;;;;;;15.10;8.07;;;17.50;92.30;;;;;;5002242;28;21154;-83
2022/10/04 09:30:15;;;;;;;12.37;7.10;;;17.50;89.50;;;;;;5022172;28;20483;-83
2022/10/04 09:33:11;;;;;;;16.03;7.60;;;18.00;88.80;;;;;;5022292;28;20962;-83
2022/10/04 09:36:03;;;;;;;14.47;7.33;;;18.20;84.40;;;;;;5016890;28;20485;-84
2022/10/04 09:38:56;;;;;;;12.27;8.13;;;18.90;85.10;;;;;;5019987;28;20976;-83
2022/10/04 09:41:37;;;;;;;11.77;6.90;;;18.80;80.00;;;;;;5021672;28;20452;-84
2022/10/04 09:44:27;;;;;;;11.23;6.80;;;19.10;79.50;;;;;;5019711;28;20484;-84
2022/10/04 09:47:21;;;;;;;12.17;6.33;;;19.50;75.20;;;;;;5019951;28;20450;-84
2022/10/04 09:50:12;;;;;;;13.30;7.53;;;19.80;74.20;;;;;;5019779;28;20463;-84
2022/10/04 09:53:04;;;;;;;10.77;6.23;;;20.20;68.90;;;;;;5018495;28;20879;-85
2022/10/04 09:55:48;;;;;;;11.23;6.47;;;20.30;66.80;;;;;;5011589;28;20492;-83
2022/10/04 09:58:42;;;;;;;11.93;6.00;;;20.30;63.10;;;;;;5019039;28;20457;-82
2022/10/04 10:01:15;;;;;;;15.30;5.93;;;20.60;63.20;;;;;;5021968;28;20455;-84
2022/10/04 10:04:07;;;;;;;14.40;6.20;;;20.70;62.70;;;;;;5018347;28;20464;-83
2022/10/04 10:07:01;;;;;;;12.27;6.20;;;20.90;62.90;;;;;;5017386;28;20456;-83
2022/10/04 10:15:34;;;;;;;10.97;6.77;;;21.10;60.20;;;;;;5015423;28;20834;-84
2022/10/04 10:18:14;;;;;;;9.03;5.83;;;21.20;58.30;;;;;;5014772;28;20456;-83
2022/10/04 10:21:04;;;;;;;14.33;5.60;;;21.50;57.60;;;;;;5014598;28;20481;-83
2022/10/04 10:23:54;;;;;;;8.77;5.13;;;21.50;54.60;;;;;;5014827;28;20862;-83
2022/10/04 10:26:47;;;;;;;11.97;6.20;;;21.30;53.20;;;;;;5018581;28;20497;-82
2022/10/04 10:29:34;;;;;;;13.43;5.17;;;21.40;53.40;;;;;;5014678;28;20842;-83
2022/10/04 10:32:16;;;;;;;9.07;4.70;;;21.80;54.60;;;;;;5014806;28;20459;-83
2022/10/04 10:35:14;;;;;;;10.00;5.10;;;21.70;50.70;;;;;;5014989;28;20472;-83
2022/10/04 10:37:58;;;;;;;12.30;5.50;;;22.40;50.20;;;;;;5014544;28;20886;-83
2022/10/04 10:41:04;;;;;;;13.43;5.30;;;22.50;49.30;;;;;;5015962;28;20473;-83
2022/10/04 10:44:00;;;;;;;12.87;5.77;;;22.80;47.00;;;;;;4986819;28;20448;-82
2022/10/04 10:46:51;;;;;;;10.10;4.50;;;23.00;44.90;;;;;;5014265;28;20544;-84
2022/10/04 10:49:29;;;;;;;9.37;4.80;;;22.80;42.10;;;;;;5014028;28;20488;-84
2022/10/04 10:52:33;;;;;;;11.20;4.63;;;23.40;41.50;;;;;;5015093;28;20453;-82
2022/10/04 10:55:31;;;;;;;11.47;5.03;;;23.40;41.80;;;;;;5001595;28;20487;-83
2022/10/04 10:58:36;;;;;;;9.70;5.10;;;23.40;40.40;;;;;;5016672;28;20459;-83
2022/10/04 11:01:25;;;;;;;13.67;5.00;;;23.80;38.80;;;;;;5037119;28;20473;-83
2022/10/04 11:04:11;;;;;;;9.10;4.50;;;23.70;37.80;;;;;;5036859;28;20500;-83
2022/10/04 11:07:17;;;;;;;9.50;5.57;;;23.80;37.40;;;;;;5036289;28;20443;-83
2022/10/04 11:10:25;;;;;;;10.87;5.70;;;23.30;39.30;;;;;;5000112;28;20451;-83
2022/10/04 11:13:20;;;;;;;18.37;6.13;;;23.50;36.40;;;;;;5014813;28;20511;-83
2022/10/04 11:16:18;;;;;;;8.60;4.70;;;23.30;38.40;;;;;;4995787;28;20473;-83
2022/10/04 11:19:32;;;;;;;9.00;5.17;;;23.60;36.40;;;;;;5013474;28;20460;-83
2022/10/04 11:22:41;;;;;;;16.33;5.40;;;23.60;35.20;;;;;;4987464;28;20970;-83
2022/10/04 11:25:33;;;;;;;11.27;5.70;;;23.80;34.70;;;;;;5013999;28;20509;-83
2022/10/04 11:28:11;;;;;;;13.93;5.30;;;23.80;34.20;;;;;;5013789;28;20485;-83
2022/10/04 11:31:11;;;;;;;13.33;5.37;;;24.00;34.90;;;;;;5013764;28;20872;-83
2022/10/04 11:33:57;;;;;;;13.80;5.40;;;24.10;31.60;;;;;;5014168;28;20453;-83
2022/10/04 11:36:49;;;;;;;9.97;4.53;;;23.80;31.80;;;;;;5012549;28;20960;-83
2022/10/04 11:39:32;;;;;;;9.30;4.70;;;24.10;31.20;;;;;;5012558;28;20468;-83
2022/10/04 11:42:12;;;;;;;10.10;5.53;;;24.30;30.00;;;;;;5012361;28;20476;-83
2022/10/04 11:44:58;;;;;;;9.70;5.47;;;24.50;30.20;;;;;;5028035;23;20531;-82
2022/10/04 11:47:40;;;;;;;10.67;4.70;;;24.70;29.30;;;;;;5014320;28;20448;-82
2022/10/04 11:50:23;;;;;;;10.20;4.50;;;24.90;28.90;;;;;;5014733;28;20875;-83
2022/10/04 11:53:27;;;;;;;11.27;5.87;;;25.00;27.80;;;;;;5015134;28;20438;-83
2022/10/04 11:56:09;;;;;;;10.77;4.73;;;24.80;27.10;;;;;;5014787;28;20495;-83
2022/10/04 11:58:47;;;;;;;13.87;4.90;;;23.70;29.70;;;;;;5016064;28;20492;-83
2022/10/04 12:01:42;;;;;;;8.60;4.40;;;22.90;33.30;;;;;;5016940;28;20461;-83
2022/10/04 12:04:31;;;;;;;13.03;5.20;;;22.80;30.80;;;;;;5011377;28;21065;-83
2022/10/04 12:07:12;;;;;;;9.40;4.50;;;23.80;29.30;;;;;;5016759;28;20461;-83
2022/10/04 12:09:45;;;;;;;8.53;4.20;;;24.40;27.40;;;;;;5016082;28;20449;-83
2022/10/04 12:12:39;;;;;;;11.00;4.50;;;25.60;25.40;;;;;;5014377;28;20437;-83
2022/10/04 12:15:38;;;;;;;8.73;4.30;;;25.70;22.90;;;;;;5014786;28;20473;-83
2022/10/04 12:18:37;;;;;;;9.20;4.27;;;25.90;22.30;;;;;;4989944;28;20449;-83
2022/10/04 12:21:39;;;;;;;10.80;5.17;;;26.50;21.80;;;;;;4994543;28;20477;-82
2022/10/04 12:24:26;;;;;;;8.90;4.17;;;26.50;16.60;;;;;;5015128;28;20448;-81
2022/10/04 12:27:27;;;;;;;8.53;3.43;;;26.00;19.40;;;;;;5014524;28;20437;-84
2022/10/04 12:30:20;;;;;;;9.30;3.67;;;26.70;17.40;;;;;;5018022;28;20645;-84
2022/10/04 12:32:55;;;;;;;11.13;3.70;;;27.00;16.50;;;;;;5017493;28;20853;-84
2022/10/04 12:35:30;;;;;;;8.87;3.73;;;27.20;14.60;;;;;;5017348;28;20992;-83
2022/10/04 12:38:35;;;;;;;14.80;2.93;;;27.80;12.10;;;;;;5017646;28;20462;-83
2022/10/04 12:41:11;;;;;;;8.83;3.10;;;27.30;9.40;;;;;;5018717;28;20476;-83
2022/10/04 12:43:49;;;;;;;8.87;3.20;;;25.90;10.70;;;;;;5019052;28;20433;-83
2022/10/04 12:46:26;;;;;;;6.80;3.17;;;25.80;12.90;;;;;;5017521;28;20485;-84
2022/10/04 12:49:15;;;;;;;8.60;3.10;;;26.20;12.50;;;;;;5016994;28;20457;-83
2022/10/04 12:51:51;;;;;;;8.10;3.20;;;26.50;11.20;;;;;;5018213;28;20452;-84
2022/10/04 12:54:36;;;;;;;7.63;2.87;;;26.40;8.90;;;;;;5017846;28;20498;-85
2022/10/04 12:57:30;;;;;;;15.50;3.60;;;26.80;9.10;;;;;;5018221;28;20457;-84
2022/10/04 13:00:05;;;;;;;9.67;3.20;;;27.20;8.30;;;;;;5019188;28;20807;-83
2022/10/04 13:03:02;;;;;;;6.97;3.23;;;27.80;8.70;;;;;;5018092;28;21051;-83
2022/10/04 13:05:38;;;;;;;6.50;3.10;;;27.80;6.30;;;;;;5013430;28;20477;-83
2022/10/04 13:08:19;;;;;;;7.43;3.50;;;28.00;6.10;;;;;;5017307;28;20942;-83
2022/10/04 13:11:01;;;;;;;7.60;3.27;;;27.90;5.80;;;;;;5017651;28;20445;-83
2022/10/04 13:13:54;;;;;;;8.57;3.00;;;28.30;5.00;;;;;;5017035;28;20437;-83
2022/10/04 13:16:28;;;;;;;10.10;3.20;;;27.90;5.30;;;;;;5018120;28;20476;-83
2022/10/04 13:19:04;;;;;;;9.50;4.10;;;27.00;8.00;;;;;;5018465;28;20460;-83
2022/10/04 13:22:01;;;;;;;6.90;3.30;;;26.00;9.20;;;;;;5019447;28;20500;-83
2022/10/04 13:24:53;;;;;;;10.60;3.80;;;24.60;14.10;;;;;;5018357;28;20480;-83
2022/10/04 13:27:29;;;;;;;8.40;3.20;;;23.60;18.90;;;;;;5019106;28;20532;-83
2022/10/04 13:30:04;;;;;;;7.73;2.87;;;22.80;23.10;;;;;;5018890;28;20455;-83
2022/10/04 13:32:40;;;;;;;7.80;3.03;;;22.40;23.60;;;;;;5019850;28;20447;-83
2022/10/04 13:35:17;;;;;;;10.53;3.30;;;22.00;24.40;;;;;;5020745;28;20483;-83
2022/10/04 13:37:57;;;;;;;7.30;3.27;;;21.70;27.30;;;;;;5020775;28;20488;-83
2022/10/04 13:40:38;;;;;;;9.10;3.10;;;21.50;27.20;;;;;;5021052;28;20438;-83
2022/10/04 13:43:34;;;;;;;7.50;2.83;;;21.40;30.00;;;;;;5022010;28;20437;-84
2022/10/04 13:46:23;;;;;;;17.23;4.00;;;21.20;30.00;;;;;;5001946;28;20489;-84
2022/10/04 13:49:00;;;;;;;11.90;3.73;;;21.30;32.30;;;;;;5022719;28;20466;-83
2022/10/04 13:57:46;;;;;;;8.20;2.90;;;20.80;33.80;;;;;;5021993;28;20444;-83
2022/10/04 14:00:44;;;;;;;8.43;3.20;;;20.70;36.10;;;;;;5022038;28;20913;-82
2022/10/04 14:03:29;;;;;;;6.27;3.30;;;20.80;36.90;;;;;;5020332;28;20865;-82
2022/10/04 14:06:34;;;;;;;7.83;3.80;;;20.90;36.90;;;;;;5021776;28;20467;-82
2022/10/04 14:09:31;;;;;;;8.47;3.30;;;20.90;36.10;;;;;;5012999;28;20463;-83
2022/10/04 14:12:32;;;;;;;7.40;3.70;;;21.30;37.80;;;;;;5022405;28;20445;-83
2022/10/04 14:15:25;;;;;;;9.50;3.90;;;21.40;35.80;;;;;;4997290;28;20480;-83
2022/10/04 14:18:39;;;;;;;8.83;3.90;;;21.60;35.10;;;;;;5023113;28;20461;-84
2022/10/04 14:21:36;;;;;;;9.17;3.50;;;22.00;35.60;;;;;;5021946;28;20484;-84
2022/10/04 14:24:37;;;;;;;8.33;3.90;;;22.30;32.60;;;;;;5009604;28;20464;-82
2022/10/04 14:27:38;;;;;;;11.10;3.40;;;22.10;32.70;;;;;;5021890;28;20950;-83
2022/10/04 14:30:16;;;;;;;7.27;3.50;;;21.60;33.80;;;;;;5022278;28;20460;-85
2022/10/04 14:33:17;;;;;;;9.00;3.60;;;21.40;35.10;;;;;;5023630;28;20452;-82
2022/10/04 14:35:51;;;;;;;8.73;3.90;;;21.20;36.40;;;;;;5021534;28;20479;-83
2022/10/04 14:38:38;;;;;;;12.87;3.60;;;21.00;37.40;;;;;;5022327;28;20545;-83
2022/10/04 14:41:33;;;;;;;6.47;3.60;;;20.80;39.00;;;;;;5022181;28;20793;-83
2022/10/04 14:44:28;;;;;;;7.47;4.37;;;20.80;36.00;;;;;;5020926;28;20463;-84
2022/10/04 14:47:10;;;;;;;10.00;3.77;;;20.90;40.40;;;;;;5021075;28;20451;-83
2022/10/04 14:49:49;;;;;;;11.50;3.17;;;21.60;36.80;;;;;;5020142;28;20461;-83
2022/10/04 14:52:32;;;;;;;9.23;3.80;;;22.70;31.40;;;;;;5019216;28;20448;-83
2022/10/04 15:02:07;;;;;;;8.17;3.33;;;25.40;22.10;;;;;;4953393;29;20491;-81
2022/10/04 15:04:57;;;;;;;18.77;4.30;;;26.10;18.60;;;;;;4983487;28;20481;-84
2022/10/04 15:07:31;;;;;;;7.03;3.23;;;26.10;17.30;;;;;;5013405;28;20457;-84
2022/10/04 15:10:10;;;;;;;8.27;3.90;;;25.80;17.10;;;;;;5013530;28;20445;-84
2022/10/04 15:12:58;;;;;;;8.20;3.43;;;25.70;18.30;;;;;;5013400;28;20452;-84